Have a Safe July 4th! 

Flight Track Log - Related Links

Times and Time Zones

All times are in EST time to prevent confusion due to time zone crossing. See the N749PG flight status page for this flight to view local times or setup timezone preferences in your user account.

Time Position Orientation Groundspeed Altitude Reporting Facility
EST Latitude Longitude Course Direction KTS MPH feet Rate Location/Type
Sat 11:56:57 AM 25.0150 -77.5375 123° Southeast 161 185 3,500  Level Miami Center
Sat 11:57:57 AM 24.9942 -77.5100 130° Southeast 97 112 4,400 900 Climbing Miami Center
Sat 11:58:57 AM 24.9861 -77.4686 102° East 97 112 5,300 850 Climbing Miami Center
Sat 11:59:57 AM 24.9819 -77.4250 96° East 109 125 6,100 750 Climbing Miami Center
Sat 12:00:57 PM 24.9781 -77.3792 95° East 131 151 6,800 400 Climbing Miami Center
Sat 12:01:57 PM 24.9531 -77.3403 125° Southeast 143 165 6,900 50 Climbing Miami Center
Sat 12:02:00 PM 24.8921 -77.2204 123° Southeast  Level Estimated
Sat 12:02:57 PM 24.9219 -77.2989 130° Southeast 159 183 6,900  Level Miami Center
Sat 12:03:57 PM 24.8906 -77.2575 130° Southeast 171 197 6,900  Level Miami Center
Sat 12:04:57 PM 24.8572 -77.2161 132° Southeast 176 203 6,900  Level Miami Center
Sat 12:05:57 PM 24.8261 -77.1725 128° Southeast 181 208 6,900  Level Miami Center
Sat 12:06:57 PM 24.7925 -77.1311 132° Southeast 181 208 6,900  Level Miami Center
Sat 12:07:57 PM 24.7614 -77.0900 130° Southeast 186 214 6,900  Level Miami Center
Sat 12:08:57 PM 24.7281 -77.0486 132° Southeast 186 214 6,900  Level Miami Center
Sat 12:09:57 PM 24.6989 -77.0097 130° Southeast 186 214 6,900  Level Miami Center
Sat 12:10:57 PM 24.6717 -76.9664 125° Southeast 181 208 6,900  Level Miami Center
Sat 12:11:57 PM 24.6403 -76.9206 127° Southeast 181 208 6,900  Level Miami Center
Sat 12:12:57 PM 24.6131 -76.8747 123° Southeast 175 201 6,900  Level Miami Center
Sat 12:13:57 PM 24.5858 -76.8292 123° Southeast 175 201 6,900  Level Miami Center
Sat 12:14:57 PM 24.5547 -76.7858 128° Southeast 175 201 6,900  Level Miami Center
Sat 12:15:57 PM 24.5275 -76.7378 122° Southeast 175 201 6,900  Level Miami Center
Sat 12:16:57 PM 24.4981 -76.6944 127° Southeast 175 201 6,900  Level Miami Center
Sat 12:17:57 PM 24.4689 -76.6489 125° Southeast 175 201 6,900  Level Miami Center
Sat 12:18:57 PM 24.4414 -76.6031 123° Southeast 175 201 6,900  Level Miami Center
Sat 12:19:57 PM 24.4058 -76.5508 127° Southeast 181 208 6,900  Level Miami Center
Sat 12:20:57 PM 24.3786 -76.5053 123° Southeast 181 208 6,900  Level Miami Center
Sat 12:21:57 PM 24.3492 -76.4597 125° Southeast 181 208 6,900  Level Miami Center
Sat 12:22:57 PM 24.3219 -76.4164 125° Southeast 176 203 6,900  Level Miami Center
Sat 12:23:57 PM 24.2925 -76.3686 124° Southeast 176 203 6,900  Level Miami Center
Sat 12:24:57 PM 24.2631 -76.3231 125° Southeast 176 203 6,900  Level Miami Center
Sat 12:25:57 PM 24.2336 -76.2778 125° Southeast 176 203 6,900  Level Miami Center
Sat 12:26:57 PM 24.2083 -76.2414 127° Southeast 176 203 6,900  Level Miami Center
Sat 12:27:57 PM 24.1811 -76.1983 125° Southeast 176 203 6,900  Level Miami Center
Sat 12:28:57 PM 24.1517 -76.1528 125° Southeast 176 203 6,900  Level Miami Center
Sat 12:29:57 PM 24.1222 -76.1053 124° Southeast 176 203 6,900  Level Miami Center
Sat 12:30:57 PM 24.0947 -76.0622 125° Southeast 176 203 6,900  Level Miami Center
Sat 12:31:57 PM 24.0653 -76.0167 125° Southeast 176 203 6,900 -100 Level Miami Center
Sat 12:32:57 PM 24.0378 -75.9714 124° Southeast 176 203 6,700 -100 Descending Miami Center
Sat 12:33:57 PM 24.0083 -75.9261 125° Southeast 176 203 6,700  Level Miami Center
Sat 12:34:57 PM 23.9767 -75.8808 127° Southeast 176 203 6,700  Level Miami Center
Sat 12:35:57 PM 23.9469 -75.8333 124° Southeast 176 203 6,700  Level Miami Center
Sat 12:36:57 PM 23.9194 -75.7906 125° Southeast 176 203 6,700  Level Miami Center
Sat 12:37:57 PM 23.8900 -75.7431 124° Southeast 176 203 6,700 150 Level Miami Center
Sat 12:38:57 PM 23.8603 -75.7000 127° Southeast 176 203 7,000 150 Climbing Miami Center
Sat 12:39:57 PM 23.8308 -75.6528 124° Southeast 176 203 7,000  Level Miami Center
Sat 12:40:57 PM 23.8011 -75.6053 124° Southeast 176 203 7,000  Level Miami Center
Sat 12:41:57 PM 23.7694 -75.5603 128° Southeast 176 203 7,000  Level Miami Center
Sat 12:42:57 PM 23.7397 -75.5128 124° Southeast 176 203 7,000 -50 Level Miami Center
Sat 12:43:57 PM 23.7122 -75.4678 124° Southeast 176 203 6,900 -50 Descending Miami Center
Sat 12:44:57 PM 23.6825 -75.4228 126° Southeast 176 203 6,900 50 Level Miami Center
Sat 12:45:57 PM 23.6528 -75.3775 126° Southeast 176 203 7,000 50 Climbing Miami Center
Sat 12:46:57 PM 23.6208 -75.3281 125° Southeast 176 203 7,000 -50 Level Miami Center
Sat 12:47:57 PM 23.5933 -75.2831 124° Southeast 176 203 6,900 -50 Descending Miami Center
Sat 12:48:57 PM 23.5656 -75.2381 124° Southeast 176 203 6,900 50 Level Miami Center
Sat 12:49:57 PM 23.5422 -75.1908 118° Southeast 176 203 7,000  Climbing Miami Center
Sat 12:50:57 PM 23.5206 -75.1458 118° Southeast 171 197 6,900 -50 Descending Miami Center
Sat 12:51:57 PM 23.4950 -75.0986 121° Southeast 166 191 6,900  Level Miami Center
Sat 12:52:57 PM 23.4714 -75.0492 117° Southeast 166 191 6,900 50 Level Miami Center
Sat 12:53:57 PM 23.4458 -75.0019 121° Southeast 171 197 7,000 50 Climbing Miami Center
Sat 12:54:57 PM 23.4222 -74.9569 120° Southeast 171 197 7,000  Level Miami Center
Sat 12:55:57 PM 23.4008 -74.9142 119° Southeast 171 197 7,000  Level Miami Center
Sat 12:56:57 PM 23.3814 -74.8647 113° Southeast 171 197 7,000 -50 Level Miami Center
Sat 12:57:57 PM 23.3558 -74.8222 123° Southeast 171 197 6,900  Descending Miami Center
Sat 12:58:57 PM 23.3342 -74.7772 118° Southeast 171 197 7,000  Climbing Miami Center
Sat 12:59:57 PM 23.3106 -74.7325 120° Southeast 171 197 6,900  Descending Miami Center
Sat 01:00:57 PM 23.2892 -74.6875 117° Southeast 166 191 7,000 50 Climbing Miami Center
Sat 01:01:57 PM 23.2656 -74.6428 120° Southeast 166 191 7,000 -50 Level Miami Center
Sat 01:02:57 PM 23.2417 -74.5978 120° Southeast 166 191 6,900 -50 Descending Miami Center
Sat 01:03:57 PM 23.2222 -74.5531 115° Southeast 166 191 6,900  Level Miami Center
Sat 01:04:57 PM 23.1986 -74.5083 120° Southeast 166 191 6,900  Level Miami Center
Sat 01:05:57 PM 23.1750 -74.4658 121° Southeast 166 191 6,900 50 Level Miami Center
Sat 01:06:57 PM 23.1533 -74.4233 119° Southeast 166 191 7,000  Climbing Miami Center
Sat 01:07:57 PM 23.1317 -74.3808 119° Southeast 166 191 6,900  Descending Miami Center
Sat 01:08:57 PM 23.1103 -74.3383 119° Southeast 166 191 7,000 50 Climbing Miami Center
Sat 01:09:57 PM 23.0864 -74.2936 120° Southeast 166 191 7,000  Level Miami Center
Sat 01:10:57 PM 23.0628 -74.2489 120° Southeast 166 191 7,000  Level Miami Center
Sat 01:11:57 PM 23.0431 -74.2064 117° Southeast 166 191 7,000  Level Miami Center
Sat 01:12:57 PM 23.0172 -74.1617 122° Southeast 161 185 7,000  Level Miami Center
Sat 01:13:57 PM 22.9956 -74.1194 119° Southeast 161 185 7,000 -50 Level Miami Center
Sat 01:14:57 PM 22.9761 -74.0769 116° Southeast 161 185 6,900 -50 Descending Miami Center
Sat 01:15:57 PM 22.9522 -74.0344 121° Southeast 161 185 6,900  Level Miami Center
Sat 01:16:57 PM 22.9328 -73.9944 118° Southeast 161 185 6,900 50 Level Miami Center
Sat 01:17:57 PM 22.9111 -73.9542 120° Southeast 161 185 7,000 50 Climbing Miami Center
Sat 01:18:57 PM 22.8872 -73.9097 120° Southeast 161 185 7,000  Level Miami Center
Sat 01:19:57 PM 22.8656 -73.8675 119° Southeast 161 185 7,000 -50 Level Miami Center
Sat 01:20:57 PM 22.8461 -73.8317 120° Southeast 161 185 6,900  Descending Miami Center
Sat 01:21:57 PM 22.8264 -73.7894 117° Southeast 161 185 7,000 50 Climbing Miami Center
Sat 01:22:57 PM 22.8025 -73.7472 122° Southeast 161 185 7,000 -50 Level Miami Center
Sat 01:23:57 PM 22.7808 -73.7028 118° Southeast 161 185 6,900  Descending Miami Center
Sat 01:24:57 PM 22.7567 -73.6583 121° Southeast 161 185 7,000 50 Climbing Miami Center
Sat 01:25:57 PM 22.7350 -73.6183 120° Southeast 161 185 7,000  Level Miami Center
Sat 01:26:57 PM 22.7133 -73.5739 118° Southeast 161 185 7,000  Level Miami Center
Sat 01:27:57 PM 22.6525 -73.3794 109° East 161 185 7,000  Level Miami Center
Sat 01:28:57 PM 22.6481 -73.3706 118° Southeast 161 185 7,000  Level Miami Center
Sat 01:29:57 PM 22.6261 -73.3264 118° Southeast 161 185 7,000  Level Miami Center
Sat 01:30:57 PM 22.6086 -73.2908 118° Southeast 161 185 7,000  Level Miami Center
Sat 01:32:57 PM 22.6086 -73.2908 290° West 161 185 7,000  Level Miami Center
Sat 01:34:57 PM 22.6086 -73.2908 290° West 161 185 7,000  Level Miami Center
Sat 01:36:57 PM 22.4925 -73.1478 131° Southeast 161 185 7,000 -33 Level Miami Center
Sat 01:37:57 PM 22.4594 -73.0836 119° Southeast 161 185 6,900  Descending Miami Center
Sat 01:38:57 PM 22.4356 -73.0394 120° Southeast 161 185 7,000 50 Climbing Miami Center
Sat 01:39:57 PM 22.4092 -72.9953 123° Southeast 166 191 7,000  Level Miami Center
Sat 01:40:57 PM 22.3892 -72.9489 115° Southeast 166 191 7,000 -50 Level Miami Center
Sat 01:41:57 PM 22.3631 -72.9047 123° Southeast 166 191 6,900 -50 Descending Miami Center
Sat 01:42:57 PM 22.3389 -72.8583 119° Southeast 166 191 6,900  Level Miami Center
Sat 01:43:57 PM 22.3147 -72.8142 121° Southeast 166 191 6,900  Level Miami Center
Sat 01:44:57 PM 22.2906 -72.7656 118° Southeast 171 197 6,900  Level Miami Center
Sat 01:45:57 PM 22.2664 -72.7192 119° Southeast 171 197 6,900  Level Miami Center
Sat 01:46:57 PM 22.2422 -72.6750 121° Southeast 176 203 6,900 -100 Level Miami Center
Sat 01:47:57 PM 22.2178 -72.6286 120° Southeast 176 203 6,700 -400 Descending Miami Center
Sat 01:48:57 PM 22.1933 -72.5758 117° Southeast 181 208 6,100 -600 Descending Miami Center
Sat 01:50:00 PM 22.1685 -72.5296 120° Southeast  Level FlightAware Approximate
Sat 01:57:00 PM 22.0006 -72.2349 185° South  Level FlightAware Approximate
Sat 01:58:00 PM 21.9537 -72.2396 185° South  Level FlightAware Approximate
Sat 01:59:00 PM 21.9068 -72.2443 185° South  Level FlightAware Approximate
Sat 02:00:00 PM 21.8598 -72.2490 185° South  Level FlightAware Approximate
Sat 02:01:00 PM 21.8134 -72.2573 191° South  Level FlightAware Approximate
Sat 02:02:00 PM 21.7671 -72.2666 191° South  Level FlightAware Approximate
Sat 02:03:00 PM 21.7667 -72.2667 191° South  Level FlightAware Approximate
Sat 02:04:00 PM 21.7736 -72.2659 191° South  Level Estimated
Sat 02:05:00 PM 21.7667 -72.2667 191° South  Level FlightAware Approximate
Sat 02:06:00 PM 21.7736 -72.2659 191° South  Level Estimated
Sat 02:07:00 PM 21.7667 -72.2667 191° South  Level FlightAware Approximate
Sat 02:08:00 PM 21.7736 -72.2659 191° South  Level Estimated
Sat 02:09:00 PM 21.7667 -72.2667 191° South  Level FlightAware Approximate
Sat 02:10:00 PM 21.7736 -72.2659 191° South  Level Estimated
Sat 02:11:00 PM 21.7667 -72.2667 191° South  Level FlightAware Approximate
Sat 02:12:00 PM 21.7736 -72.2659 191° South  Level Estimated
Sat 02:13:00 PM 21.7667 -72.2667 191° South  Level FlightAware Approximate
Sat 02:14:00 PM 21.7736 -72.2659 191° South  Level Estimated
Sat 02:15:00 PM 21.7667 -72.2667 191° South  Level FlightAware Approximate
Sat 02:16:00 PM 21.7736 -72.2659 191° South  Level Estimated
Sat 02:17:00 PM 21.7667 -72.2667 191° South  Level FlightAware Approximate
Sat 02:18:00 PM 21.7736 -72.2659 191° South  Level Estimated

Login

Don't have an account? Register now (free) for customized features, flight alerts, and more!